createdAt,value
2019-03-03T00:00:30.559Z,1004
2019-03-03T00:01:42.835Z,1004
2019-03-03T00:04:07.119Z,1004
2019-03-03T00:05:19.223Z,1004
2019-03-03T00:06:31.513Z,1003.9
2019-03-03T00:07:43.777Z,1004
2019-03-03T00:10:08.082Z,1004
2019-03-03T00:11:20.541Z,1004
2019-03-03T00:12:32.586Z,1004
2019-03-03T00:13:44.699Z,1004
2019-03-03T00:14:56.946Z,1004
2019-03-03T00:16:08.973Z,1004
2019-03-03T00:17:21.250Z,1004
2019-03-03T00:18:33.682Z,1004
2019-03-03T00:19:45.751Z,1004.1
2019-03-03T00:22:10.730Z,1004
2019-03-03T00:23:22.404Z,1004
2019-03-03T00:25:46.728Z,1004
2019-03-03T00:26:58.934Z,1004
2019-03-03T00:28:11.051Z,1003.9
2019-03-03T00:29:23.250Z,1003.9
2019-03-03T00:30:35.403Z,1004
2019-03-03T00:31:47.631Z,1003.9
2019-03-03T00:34:11.976Z,1003.9
2019-03-03T00:35:24.079Z,1004
2019-03-03T00:36:36.422Z,1004
2019-03-03T00:37:48.656Z,1004
2019-03-03T00:39:00.850Z,1004
2019-03-03T00:40:12.850Z,1003.9
2019-03-03T00:42:37.322Z,1003.9
2019-03-03T00:47:26.099Z,1003.7
2019-03-03T00:48:38.376Z,1003.7
2019-03-03T00:49:50.653Z,1003.7
2019-03-03T00:52:14.863Z,1003.7
2019-03-03T00:54:39.270Z,1003.6
2019-03-03T00:55:51.512Z,1003.6
2019-03-03T00:58:15.857Z,1003.6
2019-03-03T00:59:28.181Z,1003.6
2019-03-03T01:00:40.259Z,1003.6
2019-03-03T01:01:52.434Z,1003.7
2019-03-03T01:03:04.691Z,1003.7
2019-03-03T01:04:16.757Z,1003.7
2019-03-03T01:05:29.075Z,1003.7
2019-03-03T01:06:42.440Z,1003.7
2019-03-03T01:07:53.541Z,1003.8
2019-03-03T01:10:17.799Z,1003.7
2019-03-03T01:11:30.053Z,1003.7
2019-03-03T01:12:42.226Z,1003.7
2019-03-03T01:13:54.465Z,1003.6
2019-03-03T01:16:18.773Z,1003.6
2019-03-03T01:18:43.202Z,1003.6
2019-03-03T01:23:31.988Z,1003.5
2019-03-03T01:24:44.190Z,1003.5
2019-03-03T01:25:56.385Z,1003.6
2019-03-03T01:27:09.719Z,1003.6
2019-03-03T01:28:20.741Z,1003.5
2019-03-03T01:30:45.043Z,1003.6
2019-03-03T01:31:57.309Z,1003.5
2019-03-03T01:34:21.831Z,1003.5
2019-03-03T01:35:33.935Z,1003.5
2019-03-03T01:37:58.385Z,1003.5
2019-03-03T01:40:22.707Z,1003.5
2019-03-03T01:42:47.004Z,1003.5
2019-03-03T01:46:23.742Z,1003.4
2019-03-03T01:47:35.957Z,1003.3
2019-03-03T01:48:48.159Z,1003.3
2019-03-03T01:50:00.261Z,1003.3
2019-03-03T01:51:12.475Z,1003.3
2019-03-03T01:52:24.636Z,1003.3
2019-03-03T01:54:49.039Z,1003.3
2019-03-03T01:56:01.315Z,1003.3
2019-03-03T01:59:37.741Z,1003.4
2019-03-03T02:02:02.296Z,1003.3
2019-03-03T02:04:26.522Z,1003.2
2019-03-03T02:05:38.827Z,1003.2
2019-03-03T02:06:51.022Z,1003.3
2019-03-03T02:10:27.685Z,1003.3
2019-03-03T02:11:39.754Z,1003.3
2019-03-03T02:12:51.968Z,1003.2
2019-03-03T02:14:04.203Z,1003.2
2019-03-03T02:15:16.378Z,1003.2
2019-03-03T02:16:28.540Z,1003
2019-03-03T02:18:52.949Z,1002.9
2019-03-03T02:22:29.603Z,1002.9
2019-03-03T02:23:41.788Z,1002.9
2019-03-03T02:24:54.017Z,1002.8
2019-03-03T02:26:06.131Z,1002.8
2019-03-03T02:28:30.414Z,1002.7
2019-03-03T02:29:42.678Z,1002.7
2019-03-03T02:30:54.817Z,1002.6
2019-03-03T02:32:07.250Z,1002.7
2019-03-03T02:35:43.692Z,1002.6
2019-03-03T02:36:55.913Z,1002.5
2019-03-03T02:38:08.093Z,1002.5
2019-03-03T02:40:32.496Z,1002.5
2019-03-03T02:42:56.859Z,1002.6
2019-03-03T02:44:09.148Z,1002.6
2019-03-03T02:46:33.415Z,1002.5
2019-03-03T02:47:45.816Z,1002.6
2019-03-03T02:50:10.048Z,1002.6
2019-03-03T02:51:22.249Z,1002.6
2019-03-03T02:52:34.320Z,1002.5
2019-03-03T02:53:46.652Z,1002.5
2019-03-03T02:54:58.803Z,1002.5
2019-03-03T02:56:11.077Z,1002.6
2019-03-03T02:58:35.477Z,1002.4
2019-03-03T02:59:47.532Z,1002.5
2019-03-03T03:00:59.813Z,1002.4
2019-03-03T03:02:11.969Z,1002.4
2019-03-03T03:04:36.274Z,1002.4
2019-03-03T03:05:48.538Z,1002.4
2019-03-03T03:07:00.669Z,1002.5
2019-03-03T03:08:13.022Z,1002.3
2019-03-03T03:10:37.378Z,1002.2
2019-03-03T03:11:49.446Z,1002.3
2019-03-03T03:13:01.832Z,1002.2
2019-03-03T03:14:13.939Z,1002.1
2019-03-03T03:15:26.145Z,1002.3
2019-03-03T03:16:38.255Z,1002.1
2019-03-03T03:19:02.621Z,1002.1
2019-03-03T03:20:14.990Z,1002.2
2019-03-03T03:23:51.531Z,1002.1
2019-03-03T03:25:03.597Z,1002.1
2019-03-03T03:26:15.946Z,1002
2019-03-03T03:27:28.128Z,1002
2019-03-03T03:28:40.210Z,1001.9
2019-03-03T03:29:52.511Z,1002
2019-03-03T03:31:04.635Z,1001.9
2019-03-03T03:32:16.867Z,1001.9
2019-03-03T03:35:53.427Z,1001.9
2019-03-03T03:37:05.764Z,1001.9
2019-03-03T03:38:17.808Z,1001.8
2019-03-03T03:40:42.235Z,1001.8
2019-03-03T03:41:54.416Z,1001.8
2019-03-03T03:43:06.531Z,1001.8
2019-03-03T03:47:55.478Z,1001.9
2019-03-03T03:51:32.055Z,1001.8
2019-03-03T03:52:44.078Z,1001.8
2019-03-03T03:55:09.312Z,1001.7
2019-03-03T03:56:20.662Z,1001.7
2019-03-03T03:58:45.221Z,1001.6
2019-03-03T03:59:57.252Z,1001.6
2019-03-03T04:01:09.474Z,1001.6
2019-03-03T04:04:46.040Z,1001.6
2019-03-03T04:07:10.438Z,1001.6
2019-03-03T04:10:47.140Z,1001.5
2019-03-03T04:11:59.275Z,1001.5
2019-03-03T04:13:13.118Z,1001.6
2019-03-03T04:16:48.067Z,1001.5
2019-03-03T04:18:00.377Z,1001.6
2019-03-03T04:19:12.421Z,1001.5
2019-03-03T04:22:49.065Z,1001.4
2019-03-03T04:24:01.282Z,1001.4
2019-03-03T04:25:13.451Z,1001.4
2019-03-03T04:26:25.670Z,1001.4
2019-03-03T04:28:50.006Z,1001.4
2019-03-03T04:31:14.404Z,1001.5
2019-03-03T04:32:27.025Z,1001.5
2019-03-03T04:36:03.285Z,1001.4
2019-03-03T04:38:27.645Z,1001.4
2019-03-03T04:40:51.968Z,1001.4
2019-03-03T04:43:19.781Z,1001.3
2019-03-03T04:46:52.864Z,1001.3
2019-03-03T04:48:05.205Z,1001.3
2019-03-03T04:52:53.914Z,1001.2
2019-03-03T04:55:18.349Z,1001.2
2019-03-03T04:56:30.618Z,1001.1
2019-03-03T04:58:58.687Z,1001.2
2019-03-03T05:00:07.107Z,1001.1
2019-03-03T05:01:19.262Z,1001.1
2019-03-03T05:02:31.509Z,1001
2019-03-03T05:03:43.728Z,1001.1
2019-03-03T05:04:55.880Z,1001
2019-03-03T05:07:20.275Z,1000.9
2019-03-03T05:08:32.597Z,1001
2019-03-03T05:10:56.950Z,1000.8
2019-03-03T05:12:09.209Z,1000.9
2019-03-03T05:13:21.366Z,1000.9
2019-03-03T05:14:33.517Z,1000.8
2019-03-03T05:15:45.682Z,1000.9
2019-03-03T05:16:57.745Z,1000.9
2019-03-03T05:18:09.999Z,1000.8
2019-03-03T05:19:22.323Z,1000.9
2019-03-03T05:23:02.132Z,1000.8
2019-03-03T05:24:13.254Z,1000.8
2019-03-03T05:25:23.189Z,1000.9
2019-03-03T05:26:35.491Z,1000.9
2019-03-03T05:27:47.653Z,1000.9
2019-03-03T05:28:59.817Z,1000.9
2019-03-03T05:31:24.106Z,1000.9
2019-03-03T05:36:12.951Z,1000.8
2019-03-03T05:37:25.125Z,1000.9
2019-03-03T05:38:37.451Z,1000.9
2019-03-03T05:39:49.534Z,1000.9
2019-03-03T05:41:01.769Z,1000.9
2019-03-03T05:42:13.849Z,1000.8
2019-03-03T05:43:26.053Z,1000.8
2019-03-03T05:44:38.240Z,1000.8
2019-03-03T05:47:02.784Z,1000.8
2019-03-03T05:48:15.017Z,1000.8
2019-03-03T05:50:39.352Z,1000.8
2019-03-03T05:51:51.585Z,1000.8
2019-03-03T05:53:03.613Z,1000.7
2019-03-03T05:54:15.928Z,1000.8
2019-03-03T05:55:28.012Z,1000.8
2019-03-03T05:56:40.294Z,1000.9
2019-03-03T05:59:04.703Z,1000.8
2019-03-03T06:00:16.797Z,1000.8
2019-03-03T06:02:41.347Z,1000.8
2019-03-03T06:05:05.564Z,1000.9
2019-03-03T06:07:30.031Z,1000.7
2019-03-03T06:08:42.257Z,1000.8
2019-03-03T06:12:18.987Z,1000.7
2019-03-03T06:14:43.294Z,1000.6
2019-03-03T06:15:55.397Z,1000.7
2019-03-03T06:17:07.613Z,1000.7
2019-03-03T06:19:31.914Z,1000.6
2019-03-03T06:23:08.736Z,1000.6
2019-03-03T06:24:21.040Z,1000.5
2019-03-03T06:25:32.879Z,1000.6
2019-03-03T06:26:45.255Z,1000.6
2019-03-03T06:29:09.548Z,1000.7
2019-03-03T06:30:21.791Z,1000.6
2019-03-03T06:31:33.944Z,1000.6
2019-03-03T06:32:46.139Z,1000.6
2019-03-03T06:36:22.730Z,1000.7
2019-03-03T06:38:47.175Z,1000.7
2019-03-03T06:39:59.447Z,1000.6
2019-03-03T06:41:11.492Z,1000.7
2019-03-03T06:42:23.752Z,1000.6
2019-03-03T06:43:35.931Z,1000.5
2019-03-03T06:44:48.115Z,1000.6
2019-03-03T06:48:24.598Z,1000.6
2019-03-03T06:50:49.170Z,1000.6
2019-03-03T06:52:01.410Z,1000.6
2019-03-03T06:53:13.467Z,1000.6
2019-03-03T06:55:37.775Z,1000.6
2019-03-03T07:00:26.679Z,1000.6
2019-03-03T07:01:38.757Z,1000.6
2019-03-03T07:02:51.002Z,1000.5
2019-03-03T07:04:03.345Z,1000.6
2019-03-03T07:05:15.395Z,1000.6
2019-03-03T07:06:27.640Z,1000.5
2019-03-03T07:07:39.729Z,1000.5
2019-03-03T07:08:52.087Z,1000.5
2019-03-03T07:11:16.546Z,1000.5
2019-03-03T07:23:18.388Z,1000.6
2019-03-03T07:24:30.657Z,1000.5
2019-03-03T07:25:42.811Z,1000.7
2019-03-03T07:26:54.977Z,1000.6
2019-03-03T07:28:07.173Z,1000.6
2019-03-03T07:29:19.387Z,1000.7
2019-03-03T07:30:31.600Z,1000.7
2019-03-03T07:31:43.636Z,1000.6
2019-03-03T07:32:56.062Z,1000.6
2019-03-03T07:36:32.503Z,1000.8
2019-03-03T07:37:44.686Z,1000.7
2019-03-03T07:38:56.896Z,1000.7
2019-03-03T07:40:09.199Z,1000.8
2019-03-03T07:41:21.289Z,1000.7
2019-03-03T07:43:45.587Z,1000.8
2019-03-03T07:47:22.324Z,1000.7
2019-03-03T07:48:34.430Z,1000.7
2019-03-03T07:50:58.918Z,1000.7
2019-03-03T07:52:10.958Z,1000.7
2019-03-03T07:53:23.153Z,1000.7
2019-03-03T07:55:47.621Z,1000.7
2019-03-03T08:00:36.373Z,1000.6
2019-03-03T08:01:48.615Z,1000.6
2019-03-03T08:03:00.950Z,1000.6
2019-03-03T08:04:13.087Z,1000.6
2019-03-03T08:05:25.103Z,1000.6
2019-03-03T08:06:37.297Z,1000.6
2019-03-03T08:07:49.497Z,1000.7
2019-03-03T08:12:38.288Z,1000.6
2019-03-03T08:15:02.866Z,1000.7
2019-03-03T08:16:14.969Z,1000.7
2019-03-03T08:17:27.092Z,1000.6
2019-03-03T08:19:51.756Z,1000.7
2019-03-03T08:23:28.253Z,1000.7
2019-03-03T08:24:40.299Z,1000.6
2019-03-03T08:27:05.716Z,1000.6
2019-03-03T08:28:16.901Z,1000.7
2019-03-03T08:29:29.045Z,1000.7
2019-03-03T08:30:42.814Z,1000.7
2019-03-03T08:31:53.468Z,1000.6
2019-03-03T08:35:30.116Z,1000.7
2019-03-03T08:36:42.182Z,1000.6
2019-03-03T08:39:06.711Z,1000.7
2019-03-03T08:41:30.965Z,1000.7
2019-03-03T08:43:55.395Z,1000.5
2019-03-03T08:45:07.692Z,1000.6
2019-03-03T08:47:32.133Z,1000.6
2019-03-03T08:48:44.213Z,1000.5
2019-03-03T08:49:56.509Z,1000.6
2019-03-03T08:51:08.559Z,1000.7
2019-03-03T08:52:20.801Z,1000.6
2019-03-03T08:53:32.948Z,1000.6
2019-03-03T08:54:45.807Z,1000.6
2019-03-03T08:55:57.315Z,1000.6
2019-03-03T08:57:09.502Z,1000.6
2019-03-03T08:59:34.092Z,1000.7
2019-03-03T09:00:46.134Z,1000.6
2019-03-03T09:01:58.533Z,1000.5
2019-03-03T09:03:10.655Z,1000.6
2019-03-03T09:04:22.764Z,1000.6
2019-03-03T09:05:35.006Z,1000.6
2019-03-03T09:07:59.360Z,1000.6
2019-03-03T09:11:36.002Z,1000.5
2019-03-03T09:12:48.046Z,1000.5
2019-03-03T09:14:00.451Z,1000.5
2019-03-03T09:15:12.531Z,1000.5
2019-03-03T09:16:24.744Z,1000.6
2019-03-03T09:17:36.822Z,1000.5
2019-03-03T09:18:49.025Z,1000.4
2019-03-03T09:20:01.304Z,1000.5
2019-03-03T09:21:13.610Z,1000.5
2019-03-03T09:23:37.882Z,1000.5
2019-03-03T09:24:50.110Z,1000.5
2019-03-03T09:26:02.488Z,1000.6
2019-03-03T09:27:14.587Z,1000.5
2019-03-03T09:28:26.578Z,1000.5
2019-03-03T09:29:38.849Z,1000.6
2019-03-03T09:32:03.169Z,1000.5
2019-03-03T09:35:39.842Z,1000.6
2019-03-03T09:36:52.802Z,1000.5
2019-03-03T09:38:04.289Z,1000.6
2019-03-03T09:39:16.514Z,1000.5
2019-03-03T09:40:28.598Z,1000.5
2019-03-03T09:41:40.752Z,1000.5
2019-03-03T09:42:53.050Z,1000.5
2019-03-03T09:44:05.166Z,1000.4
2019-03-03T09:45:17.396Z,1000.5
2019-03-03T09:47:41.706Z,1000.4
2019-03-03T09:48:54.017Z,1000.4
2019-03-03T09:50:06.100Z,1000.4
2019-03-03T09:51:18.313Z,1000.5
2019-03-03T09:52:30.494Z,1000.5
2019-03-03T09:53:42.785Z,1000.4
2019-03-03T09:56:07.160Z,1000.4
2019-03-03T09:57:19.399Z,1000.3
2019-03-03T10:00:55.982Z,1000.3
2019-03-03T10:02:08.125Z,1000.3
2019-03-03T10:03:24.898Z,1000.3
2019-03-03T10:05:44.768Z,1000.4
2019-03-03T10:08:09.099Z,1000.4
2019-03-03T10:09:21.275Z,1000.3
2019-03-03T10:11:45.902Z,1000.4
2019-03-03T10:12:57.809Z,1000.4
2019-03-03T10:14:10.058Z,1000.4
2019-03-03T10:15:22.290Z,1000.4
2019-03-03T10:17:46.636Z,1000.3
2019-03-03T10:20:10.956Z,1000.4
2019-03-03T10:24:59.937Z,1000.4
2019-03-03T10:26:12.068Z,1000.4
2019-03-03T10:27:24.127Z,1000.3
2019-03-03T10:28:36.469Z,1000.4
2019-03-03T10:29:48.507Z,1000.3
2019-03-03T10:31:00.706Z,1000.4
2019-03-03T10:32:12.895Z,1000.4
2019-03-03T10:35:49.654Z,1000.3
2019-03-03T10:37:01.758Z,1000.4
2019-03-03T10:38:13.867Z,1000.3
2019-03-03T10:39:26.065Z,1000.3
2019-03-03T10:40:38.351Z,1000.2
2019-03-03T10:41:50.522Z,1000.3
2019-03-03T10:43:02.768Z,1000.2
2019-03-03T10:44:14.907Z,1000.3
2019-03-03T10:45:27.115Z,1000.2
2019-03-03T10:47:51.418Z,1000.2
2019-03-03T10:49:03.698Z,1000.2
2019-03-03T10:50:15.870Z,1000.2
2019-03-03T10:51:27.993Z,1000.2
2019-03-03T10:53:52.374Z,1000.2
2019-03-03T10:56:16.774Z,1000.2
2019-03-03T10:59:53.939Z,1000.2
2019-03-03T11:01:05.561Z,1000.2
2019-03-03T11:04:42.300Z,1000.2
2019-03-03T11:05:54.332Z,1000.2
2019-03-03T11:07:08.392Z,1000.3
2019-03-03T11:08:18.782Z,1000.2
2019-03-03T11:09:30.968Z,1000.2
2019-03-03T11:13:07.563Z,1000.3
2019-03-03T11:15:31.901Z,1000.3
2019-03-03T11:17:56.271Z,1000.2
2019-03-03T11:20:20.644Z,1000.2
2019-03-03T11:23:57.352Z,1000.2
2019-03-03T11:25:09.534Z,1000.1
2019-03-03T11:26:21.830Z,1000.2
2019-03-03T11:27:33.916Z,1000.1
2019-03-03T11:29:58.278Z,1000
2019-03-03T11:32:22.654Z,1000.1
2019-03-03T11:35:59.213Z,999.9
2019-03-03T11:37:11.455Z,1000
2019-03-03T11:39:35.861Z,1000
2019-03-03T11:40:48.086Z,1000
2019-03-03T11:42:00.225Z,1000
2019-03-03T11:43:12.415Z,999.9
2019-03-03T11:44:24.518Z,999.8
2019-03-03T11:48:01.295Z,999.7
2019-03-03T11:49:13.361Z,999.8
2019-03-03T11:51:37.889Z,999.7
2019-03-03T11:52:49.973Z,999.8
2019-03-03T11:54:02.207Z,999.8
2019-03-03T11:55:14.399Z,999.8
2019-03-03T11:56:26.558Z,999.7
2019-03-03T11:57:38.672Z,999.7
2019-03-03T12:01:15.306Z,999.6
2019-03-03T12:02:27.518Z,999.6
2019-03-03T12:03:39.701Z,999.6
2019-03-03T12:04:51.813Z,999.6
2019-03-03T12:06:04.086Z,999.7
2019-03-03T12:07:18.835Z,999.6
2019-03-03T12:08:28.475Z,999.6
2019-03-03T12:09:40.759Z,999.5
2019-03-03T12:12:05.005Z,999.5
2019-03-03T12:13:17.170Z,999.5
2019-03-03T12:15:41.725Z,999.6
2019-03-03T12:16:53.920Z,999.5
2019-03-03T12:18:05.950Z,999.5
2019-03-03T12:20:31.160Z,999.5
2019-03-03T12:21:42.896Z,999.4
2019-03-03T12:24:06.967Z,999.4
2019-03-03T12:25:19.236Z,999.5
2019-03-03T12:26:31.411Z,999.4
2019-03-03T12:27:43.568Z,999.4
2019-03-03T12:28:55.714Z,999.3
2019-03-03T12:30:07.898Z,999.4
2019-03-03T12:31:20.269Z,999.5
2019-03-03T12:32:32.392Z,999.4
2019-03-03T12:36:09.056Z,999.4
2019-03-03T12:37:21.049Z,999.4
2019-03-03T12:38:33.388Z,999.3
2019-03-03T12:39:45.430Z,999.3
2019-03-03T12:40:57.709Z,999.4
2019-03-03T12:42:09.901Z,999.4
2019-03-03T12:43:22.070Z,999.3
2019-03-03T12:44:34.225Z,999.4
2019-03-03T12:48:10.789Z,999.2
2019-03-03T12:49:22.994Z,999.4
2019-03-03T12:50:35.244Z,999.4
2019-03-03T12:51:47.497Z,999.3
2019-03-03T12:52:59.745Z,999.3
2019-03-03T12:54:11.802Z,999.4
2019-03-03T12:55:24.019Z,999.3
2019-03-03T12:56:36.161Z,999.3
2019-03-03T12:57:48.435Z,999.2
2019-03-03T13:00:12.869Z,999.2
2019-03-03T13:01:24.929Z,999.3
2019-03-03T13:02:37.161Z,999.3
2019-03-03T13:03:49.385Z,999.2
2019-03-03T13:05:01.633Z,999.3
2019-03-03T13:06:13.865Z,999.1
2019-03-03T13:07:26.068Z,998.9
2019-03-03T13:08:38.080Z,999.1
2019-03-03T13:12:14.832Z,999
2019-03-03T13:13:26.862Z,998.9
2019-03-03T13:14:39.186Z,999.1
2019-03-03T13:15:51.453Z,999
2019-03-03T13:17:03.454Z,999
2019-03-03T13:18:15.663Z,998.8
2019-03-03T13:19:27.839Z,999
2019-03-03T13:20:40.107Z,998.9
2019-03-03T13:21:52.328Z,998.9
2019-03-03T13:24:16.613Z,998.8
2019-03-03T13:25:28.915Z,999
2019-03-03T13:26:41.010Z,998.8
2019-03-03T13:27:53.183Z,998.7
2019-03-03T13:29:05.459Z,998.7
2019-03-03T13:30:17.770Z,998.8
2019-03-03T13:31:29.845Z,998.8
2019-03-03T13:32:41.964Z,998.7
2019-03-03T13:33:54.176Z,998.7
2019-03-03T13:36:18.617Z,998.7
2019-03-03T13:37:30.826Z,998.7
2019-03-03T13:38:42.942Z,998.8
2019-03-03T13:39:55.130Z,998.8
2019-03-03T13:41:07.523Z,998.9
2019-03-03T13:42:19.575Z,998.8
2019-03-03T13:43:31.797Z,998.8
2019-03-03T13:44:43.987Z,998.8
2019-03-03T13:45:56.115Z,998.8
2019-03-03T13:48:20.561Z,998.8
2019-03-03T13:49:32.761Z,998.8
2019-03-03T13:50:44.951Z,998.8
2019-03-03T13:51:57.229Z,998.7
2019-03-03T13:54:21.544Z,998.7
2019-03-03T13:55:33.734Z,998.6
2019-03-03T13:56:45.924Z,998.7
2019-03-03T13:57:58.153Z,998.7
2019-03-03T14:00:22.516Z,998.6
2019-03-03T14:01:34.619Z,998.6
2019-03-03T14:02:46.807Z,998.6
2019-03-03T14:03:59.007Z,998.5
2019-03-03T14:05:11.192Z,998.6
2019-03-03T14:06:23.435Z,998.6
2019-03-03T14:07:35.604Z,998.5
2019-03-03T14:08:47.810Z,998.5
2019-03-03T14:09:59.981Z,998.4
2019-03-03T14:12:24.451Z,998.4
2019-03-03T14:13:36.637Z,998.4
2019-03-03T14:14:48.870Z,998.4
2019-03-03T14:16:00.964Z,998.4
2019-03-03T14:17:13.341Z,998.4
2019-03-03T14:18:25.342Z,998.3
2019-03-03T14:19:37.601Z,998.2
2019-03-03T14:20:49.842Z,998.4
2019-03-03T14:24:26.465Z,998.3
2019-03-03T14:25:38.608Z,998.3
2019-03-03T14:26:50.813Z,998.3
2019-03-03T14:28:03.059Z,998.3
2019-03-03T14:30:27.267Z,998.3
2019-03-03T14:31:39.472Z,998.3
2019-03-03T14:32:51.652Z,998.3
2019-03-03T14:34:04.028Z,998.2
2019-03-03T14:37:40.432Z,998.2
2019-03-03T14:40:04.924Z,998.2
2019-03-03T14:41:17.126Z,998.3
2019-03-03T14:42:29.214Z,998.2
2019-03-03T14:44:53.675Z,998.2
2019-03-03T14:46:05.865Z,998.1
2019-03-03T14:48:30.493Z,998.1
2019-03-03T14:49:42.469Z,998.1
2019-03-03T14:52:06.912Z,998.1
2019-03-03T14:53:19.022Z,998
2019-03-03T14:54:31.333Z,998
2019-03-03T14:56:55.556Z,998
2019-03-03T15:00:32.197Z,997.9
2019-03-03T15:01:44.308Z,997.9
2019-03-03T15:04:08.806Z,997.9
2019-03-03T15:05:21.251Z,998
2019-03-03T15:06:33.093Z,997.9
2019-03-03T15:07:45.377Z,997.8
2019-03-03T15:08:57.472Z,997.7
2019-03-03T15:10:09.783Z,997.9
2019-03-03T15:13:46.405Z,997.9
2019-03-03T15:14:58.453Z,997.8
2019-03-03T15:16:10.742Z,997.8
2019-03-03T15:18:35.016Z,997.8
2019-03-03T15:20:59.421Z,997.8
2019-03-03T15:24:36.178Z,997.7
2019-03-03T15:25:48.385Z,997.6
2019-03-03T15:28:12.869Z,997.5
2019-03-03T15:29:24.795Z,997.5
2019-03-03T15:30:36.984Z,997.5
2019-03-03T15:33:01.401Z,997.4
2019-03-03T15:37:50.128Z,997.3
2019-03-03T15:39:02.525Z,997.3
2019-03-03T15:40:14.689Z,997.3
2019-03-03T15:42:38.978Z,997.2
2019-03-03T15:43:51.269Z,997.3
2019-03-03T15:45:03.307Z,997.2
2019-03-03T15:48:39.863Z,997.1
2019-03-03T15:49:52.071Z,997.1
2019-03-03T15:52:16.622Z,997.1
2019-03-03T15:53:28.806Z,997
2019-03-03T15:54:40.907Z,997
2019-03-03T15:57:05.227Z,997
2019-03-03T16:00:41.970Z,996.9
2019-03-03T16:01:54.097Z,996.9
2019-03-03T16:03:06.288Z,996.9
2019-03-03T16:04:18.558Z,996.9
2019-03-03T16:06:42.787Z,996.9
2019-03-03T16:09:07.484Z,996.9
2019-03-03T16:13:56.033Z,996.8
2019-03-03T16:15:08.384Z,996.8
2019-03-03T16:16:20.410Z,996.8
2019-03-03T16:17:32.619Z,996.9
2019-03-03T16:18:45.002Z,996.8
2019-03-03T16:19:57.045Z,996.7
2019-03-03T16:21:09.102Z,996.8
2019-03-03T16:25:57.919Z,996.6
2019-03-03T16:27:10.136Z,996.6
2019-03-03T16:28:22.341Z,996.6
2019-03-03T16:29:34.536Z,996.6
2019-03-03T16:30:46.743Z,996.6
2019-03-03T16:31:59.062Z,996.5
2019-03-03T16:33:11.055Z,996.5
2019-03-03T16:34:23.313Z,996.4
2019-03-03T16:36:47.719Z,996.4
2019-03-03T16:37:59.838Z,996.3
2019-03-03T16:39:12.146Z,996.3
2019-03-03T16:40:24.278Z,996.3
2019-03-03T16:41:36.519Z,996.2
2019-03-03T16:42:48.623Z,996.2
2019-03-03T16:45:12.984Z,996.2
2019-03-03T16:50:01.842Z,996.3
2019-03-03T16:51:14.025Z,996.2
2019-03-03T16:52:26.199Z,996.2
2019-03-03T16:54:50.618Z,996.2
2019-03-03T16:56:02.867Z,996.2
2019-03-03T16:57:14.939Z,996.2
2019-03-03T16:58:27.204Z,996.3
2019-03-03T17:00:51.693Z,996.1
2019-03-03T17:02:03.739Z,996
2019-03-03T17:03:15.962Z,996.2
2019-03-03T17:04:28.216Z,996.1
2019-03-03T17:05:40.527Z,996.1
2019-03-03T17:06:52.506Z,996.1
2019-03-03T17:08:04.764Z,996.1
2019-03-03T17:09:16.900Z,996.2
2019-03-03T17:10:29.128Z,996.1
2019-03-03T17:12:53.518Z,996.1
2019-03-03T17:14:05.716Z,996
2019-03-03T17:15:17.901Z,996.1
2019-03-03T17:16:30.091Z,996
2019-03-03T17:17:42.402Z,996.1
2019-03-03T17:18:54.409Z,996
2019-03-03T17:20:13.799Z,996
2019-03-03T17:21:18.869Z,996
2019-03-03T17:26:07.700Z,995.9
2019-03-03T17:28:32.133Z,995.8
2019-03-03T17:30:56.415Z,995.8
2019-03-03T17:33:20.876Z,995.7
2019-03-03T17:34:33.089Z,995.9
2019-03-03T17:36:57.517Z,995.8
2019-03-03T17:38:09.739Z,996
2019-03-03T17:39:21.892Z,995.8
2019-03-03T17:40:34.073Z,995.7
2019-03-03T17:41:46.239Z,995.7
2019-03-03T17:42:58.350Z,995.7
2019-03-03T17:44:10.471Z,995.7
2019-03-03T17:45:22.699Z,995.7
2019-03-03T17:46:34.959Z,995.7
2019-03-03T17:48:59.374Z,995.6
2019-03-03T17:50:11.536Z,995.6
2019-03-03T17:52:35.954Z,995.6
2019-03-03T17:53:48.236Z,995.7
2019-03-03T17:55:00.306Z,995.6
2019-03-03T17:56:12.529Z,995.5
2019-03-03T17:57:24.637Z,995.6
2019-03-03T18:02:13.469Z,995.6
2019-03-03T18:03:25.685Z,995.5
2019-03-03T18:04:37.832Z,995.5
2019-03-03T18:07:02.287Z,995.5
2019-03-03T18:08:14.558Z,995.6
2019-03-03T18:09:26.555Z,995.3
2019-03-03T18:10:38.844Z,995.5
2019-03-03T18:13:03.299Z,995.5
2019-03-03T18:14:15.395Z,995.5
2019-03-03T18:15:27.613Z,995.6
2019-03-03T18:16:39.708Z,995.6
2019-03-03T18:19:04.097Z,995.4
2019-03-03T18:21:28.485Z,995.7
2019-03-03T18:26:17.408Z,995.4
2019-03-03T18:28:41.900Z,995.4
2019-03-03T18:29:54.212Z,995.4
2019-03-03T18:31:06.056Z,995.3
2019-03-03T18:32:18.424Z,995.4
2019-03-03T18:33:30.423Z,995.3
2019-03-03T18:38:19.215Z,995.2
2019-03-03T18:39:31.448Z,995.2
2019-03-03T18:40:43.591Z,995.1
2019-03-03T18:43:08.082Z,995.2
2019-03-03T18:44:20.359Z,995.1
2019-03-03T18:45:37.239Z,995.1
2019-03-03T18:46:44.751Z,995.1
2019-03-03T18:50:21.285Z,995
2019-03-03T18:51:33.452Z,995.1
2019-03-03T18:52:45.591Z,994.9
2019-03-03T18:55:09.987Z,994.9
2019-03-03T18:57:34.624Z,994.8
2019-03-03T18:58:46.562Z,994.8
2019-03-03T19:01:11.051Z,994.8
2019-03-03T19:02:24.317Z,994.7
2019-03-03T19:03:35.381Z,994.7
2019-03-03T19:04:47.639Z,994.6
2019-03-03T19:05:59.896Z,994.7
2019-03-03T19:07:11.896Z,994.7
2019-03-03T19:08:24.260Z,994.6
2019-03-03T19:09:36.309Z,994.6
2019-03-03T19:10:50.227Z,994.5
2019-03-03T19:13:12.955Z,994.6
2019-03-03T19:14:25.277Z,994.5
2019-03-03T19:15:37.207Z,994.5
2019-03-03T19:16:49.507Z,994.6
2019-03-03T19:19:13.816Z,994.6
2019-03-03T19:20:26.130Z,994.6
2019-03-03T19:21:38.186Z,994.5
2019-03-03T19:25:14.871Z,994.5
2019-03-03T19:26:27.087Z,994.4
2019-03-03T19:27:39.352Z,994.5
2019-03-03T19:28:53.153Z,994.4
2019-03-03T19:31:15.716Z,994.4
2019-03-03T19:33:40.240Z,994.3
2019-03-03T19:37:16.882Z,994.4
2019-03-03T19:38:28.964Z,994.4
2019-03-03T19:39:41.351Z,994.4
2019-03-03T19:40:53.389Z,994.3
2019-03-03T19:42:05.557Z,994.3
2019-03-03T19:43:17.731Z,994.2
2019-03-03T19:45:42.153Z,994.4
2019-03-03T19:46:54.336Z,994.2
2019-03-03T19:49:18.726Z,994.2
2019-03-03T19:50:30.826Z,994.2
2019-03-03T19:51:43.145Z,994.1
2019-03-03T19:52:55.301Z,994.1
2019-03-03T19:54:07.472Z,994.1
2019-03-03T19:55:19.603Z,994.1
2019-03-03T19:56:31.881Z,994.1
2019-03-03T19:57:44.159Z,994.1
2019-03-03T19:58:56.332Z,994.1
2019-03-03T20:02:32.876Z,994.1
2019-03-03T20:03:45.160Z,994.1
2019-03-03T20:04:57.179Z,994.2
2019-03-03T20:07:23.783Z,994.2
2019-03-03T20:08:34.557Z,994.2
2019-03-03T20:09:46.035Z,994.2
2019-03-03T20:10:58.446Z,994.2
2019-03-03T20:13:22.743Z,994.2
2019-03-03T20:14:34.765Z,994.1
2019-03-03T20:16:59.234Z,993.9
2019-03-03T20:18:11.487Z,994
2019-03-03T20:19:23.517Z,994
2019-03-03T20:21:47.903Z,993.9
2019-03-03T20:23:00.120Z,993.8
2019-03-03T20:25:24.682Z,993.8
2019-03-03T20:26:37.019Z,993.7
2019-03-03T20:27:48.993Z,993.7
2019-03-03T20:29:01.290Z,993.7
2019-03-03T20:31:25.470Z,993.9
2019-03-03T20:32:37.841Z,993.8
2019-03-03T20:33:49.866Z,993.7
2019-03-03T20:35:02.223Z,993.7
2019-03-03T20:37:26.636Z,993.5
2019-03-03T20:38:38.686Z,993.6
2019-03-03T20:39:51.194Z,993.6
2019-03-03T20:41:03.117Z,993.6
2019-03-03T20:42:15.318Z,993.6
2019-03-03T20:43:27.498Z,993.6
2019-03-03T20:45:51.810Z,993.5
2019-03-03T20:49:28.453Z,993.5
2019-03-03T20:50:40.598Z,993.5
2019-03-03T20:51:52.875Z,993.1
2019-03-03T20:53:05.039Z,993.3
2019-03-03T20:54:17.359Z,993.2
2019-03-03T20:55:29.441Z,993.1
2019-03-03T20:56:41.645Z,993.2
2019-03-03T20:57:53.798Z,993.3
2019-03-03T20:59:06.013Z,993.2
2019-03-03T21:01:30.348Z,993.1
2019-03-03T21:02:42.618Z,993.1
2019-03-03T21:03:54.894Z,993.2
2019-03-03T21:05:07.047Z,993.3
2019-03-03T21:06:19.310Z,993.2
2019-03-03T21:07:31.430Z,993.2
2019-03-03T21:08:43.719Z,993.2
2019-03-03T21:09:55.725Z,993.3
2019-03-03T21:13:32.402Z,993.1
2019-03-03T21:14:44.744Z,993.3
2019-03-03T21:15:56.837Z,993.1
2019-03-03T21:17:08.984Z,993.1
2019-03-03T21:18:21.276Z,992.9
2019-03-03T21:19:33.287Z,993
2019-03-03T21:21:57.741Z,992.9
2019-03-03T21:23:09.992Z,993.1
2019-03-03T21:25:34.319Z,993.1
2019-03-03T21:26:46.782Z,993.1
2019-03-03T21:29:10.922Z,993.1
2019-03-03T21:30:23.099Z,992.9
2019-03-03T21:31:35.306Z,993
2019-03-03T21:33:59.699Z,992.9
2019-03-03T21:38:48.485Z,993.1
2019-03-03T21:41:13.005Z,993